Time;durP1;ratioP1;P1;durP2;ratioP2;P2;SDS_P1;SDS_P2;PMS_P1;PMS_P2;Temp;Humidity;BMP_temperature;BMP_pressure;BME280_temperature;BME280_humidity;BME280_pressure;Samples;Min_cycle;Max_cycle;Signal;HPM_P1;HPM_P2
2022/06/14 00:01:34;;;;;;;9.88;3.30;;;;;;;;;;5031286;28;20422;-61
2022/06/14 00:04:01;;;;;;;10.98;2.72;;;;;;;;;;5031479;28;20424;-61
2022/06/14 00:06:28;;;;;;;8.63;2.70;;;;;;;;;;5030770;28;20052;-61
2022/06/14 00:08:54;;;;;;;15.25;3.22;;;;;;;;;;5019999;28;20159;-61
2022/06/14 00:11:25;;;;;;;10.85;2.70;;;;;;;;;;5030681;28;20103;-62
2022/06/14 00:13:52;;;;;;;11.13;3.10;;;;;;;;;;5023333;28;20053;-61
2022/06/14 00:16:18;;;;;;;9.23;3.28;;;;;;;;;;5037893;28;20393;-61
2022/06/14 00:18:44;;;;;;;11.88;2.78;;;;;;;;;;5038340;28;20049;-61
2022/06/14 00:21:13;;;;;;;9.35;3.55;;;;;;;;;;5037720;28;20057;-61
2022/06/14 00:23:39;;;;;;;12.55;3.35;;;;;;;;;;5036424;28;20064;-61
2022/06/14 00:26:05;;;;;;;12.80;3.42;;;;;;;;;;5037786;28;20055;-61
2022/06/14 00:28:33;;;;;;;14.25;3.75;;;;;;;;;;5038239;28;20095;-61
2022/06/14 00:31:16;;;;;;;12.05;2.75;;;;;;;;;;5021486;28;20076;-61
2022/06/14 00:33:43;;;;;;;12.00;3.15;;;;;;;;;;5031299;28;20409;-61
2022/06/14 00:36:10;;;;;;;9.48;2.75;;;;;;;;;;5037846;28;20049;-61
2022/06/14 00:38:38;;;;;;;11.02;3.42;;;;;;;;;;5039098;28;20053;-61
2022/06/14 00:41:05;;;;;;;11.20;3.22;;;;;;;;;;5038693;28;20124;-60
2022/06/14 00:43:31;;;;;;;9.68;2.45;;;;;;;;;;5038141;28;20049;-60
2022/06/14 00:46:01;;;;;;;11.80;2.38;;;;;;;;;;5037482;28;20046;-61
2022/06/14 00:48:28;;;;;;;11.90;3.35;;;;;;;;;;5037596;28;20049;-61
2022/06/14 00:51:06;;;;;;;9.38;2.50;;;;;;;;;;5038657;28;20046;-61
2022/06/14 00:53:32;;;;;;;11.38;2.50;;;;;;;;;;5053343;28;20100;-60
2022/06/14 00:56:24;;;;;;;14.07;2.95;;;10.40;99.90;;;;;;5038267;28;20502;-61
2022/06/14 00:58:56;;;;;;;11.77;3.13;;;;;;;;;;5018678;28;20128;-60
2022/06/14 01:01:24;;;;;;;10.45;2.72;;;;;;;;;;5038703;28;20049;-61
2022/06/14 01:03:57;;;;;;;15.25;3.58;;;;;;;;;;5036879;28;20405;-60
2022/06/14 01:06:53;;;;;;;14.93;3.28;;;;;;;;;;5038705;28;20045;-60
2022/06/14 01:09:21;;;;;;;12.50;3.58;;;;;;;;;;5025700;28;20087;-60
2022/06/14 01:11:49;;;;;;;14.68;3.20;;;;;;;;;;5038716;28;20053;-60
2022/06/14 01:14:18;;;;;;;7.53;2.97;;;;;;;;;;5037941;28;20401;-60
2022/06/14 01:16:44;;;;;;;8.23;3.22;;;;;;;;;;5036454;28;20132;-60
2022/06/14 01:19:21;;;;;;;12.52;3.05;;;;;;;;;;5037809;28;20041;-60
2022/06/14 01:21:51;;;;;;;15.38;3.38;;;;;;;;;;5038117;28;20053;-61
2022/06/14 01:24:17;;;;;;;7.13;3.78;;;;;;;;;;5036684;28;20046;-60
2022/06/14 01:26:43;;;;;;;14.85;4.10;;;;;;;;;;5035063;28;20559;-60
2022/06/14 01:29:09;;;;;;;9.02;3.38;;;;;;;;;;5035257;28;20045;-61
2022/06/14 01:31:35;;;;;;;9.80;3.42;;;;;;;;;;5033666;28;20042;-61
2022/06/14 01:34:04;;;;;;;8.65;3.35;;;;;;;;;;5034603;28;20060;-60
2022/06/14 01:36:33;;;;;;;8.88;3.88;;;;;;;;;;5034184;28;20322;-60
2022/06/14 01:39:00;;;;;;;11.07;3.80;;;;;;;;;;5035186;28;20106;-60
2022/06/14 01:41:27;;;;;;;9.60;3.95;;;;;;;;;;5034918;28;20049;-61
2022/06/14 01:44:16;;;;;;;8.95;3.75;;;;;;;;;;5033725;28;20052;-61
2022/06/14 01:46:48;;;;;;;12.82;4.22;;;;;;;;;;5017350;28;20057;-60
2022/06/14 01:52:09;;;;;;;9.98;3.60;;;;;;;;;;5034527;28;20128;-60
2022/06/14 01:54:47;;;;;;;9.35;3.45;;;;;;;;;;5034509;28;20508;-60
2022/06/14 01:57:34;;;;;;;10.90;3.67;;;;;;;;;;5014903;28;20057;-60
2022/06/14 02:00:06;;;;;;;7.65;3.35;;;;;;;;;;5031422;28;20087;-60
2022/06/14 02:04:36;;;;;;;10.60;4.28;;;;;;;;;;5034787;28;20048;-60
2022/06/14 02:05:41;;;;;;;8.18;3.60;;;;;;;;;;5028375;28;20088;-60
2022/06/14 02:08:11;;;;;;;11.05;3.90;;;;;;;;;;5034695;28;20102;-60
2022/06/14 02:10:47;;;;;;;7.05;3.50;;;;;;;;;;5034567;28;20085;-60
2022/06/14 02:13:18;;;;;;;10.98;3.60;;;;;;;;;;5016570;28;20448;-61
2022/06/14 02:15:46;;;;;;;;;;;10.00;99.90;;;;;;5033067;28;20049;-60
2022/06/14 02:18:23;;;;;;;9.00;4.40;;;;;;;;;;5034254;28;19924;-60
2022/06/14 02:21:09;;;;;;;12.48;5.15;;;;;;;;;;5034488;28;20045;-60
2022/06/14 02:23:40;;;;;;;9.25;3.47;;;;;;;;;;5023552;28;20110;-60
2022/06/14 02:26:18;;;;;;;8.65;3.65;;;;;;;;;;5033776;28;20401;-60
2022/06/14 02:28:48;;;;;;;8.27;4.25;;;;;;;;;;5047994;28;20043;-60
2022/06/14 02:31:20;;;;;;;9.47;4.90;;;;;;;;;;5016589;28;20132;-60
2022/06/14 02:33:50;;;;;;;11.60;4.72;;;;;;;;;;5033930;28;20046;-60
2022/06/14 02:36:20;;;;;;;9.73;5.73;;;;;;;;;;5016193;28;20045;-60
2022/06/14 02:39:09;;;;;;;10.73;5.25;;;;;;;;;;5033939;28;20049;-60
2022/06/14 02:41:42;;;;;;;11.70;4.90;;;;;;;;;;5025687;28;20054;-60
2022/06/14 02:44:20;;;;;;;9.52;4.55;;;;;;;;;;5032154;28;20048;-60
2022/06/14 02:46:49;;;;;;;10.00;4.30;;;;;;;;;;5034022;28;20049;-60
2022/06/14 02:49:24;;;;;;;9.93;4.05;;;;;;;;;;5015932;28;20158;-62
2022/06/14 02:51:52;;;;;;;11.35;3.75;;;;;;;;;;5033108;28;20041;-60
2022/06/14 02:54:27;;;;;;;11.75;3.80;;;;;;;;;;5034642;28;20103;-60
2022/06/14 02:56:59;;;;;;;9.25;3.33;;;;;;;;;;5033647;28;20054;-60
2022/06/14 02:59:31;;;;;;;13.65;4.22;;;;;;;;;;5031031;28;20065;-61
2022/06/14 03:02:02;;;;;;;13.93;4.10;;;;;;;;;;5033288;28;20493;-60
2022/06/14 03:04:32;;;;;;;10.20;3.63;;;;;;;;;;5032533;28;20041;-60
2022/06/14 03:07:19;;;;;;;11.02;3.83;;;;;;;;;;5033437;28;20052;-60
2022/06/14 03:09:47;;;;;;;5.93;3.53;;;;;;;;;;5033116;28;20045;-60
2022/06/14 03:12:22;;;;;;;8.98;4.45;;;;;;;;;;5015455;28;20494;-60
2022/06/14 03:14:48;;;;;;;13.60;4.40;;;;;;;;;;5032347;28;20041;-60
2022/06/14 03:17:24;;;;;;;12.25;3.88;;;;;;;;;;5016058;28;20166;-60
2022/06/14 03:20:07;;;;;;;9.65;3.70;;;;;;;;;;5047570;28;20041;-59
2022/06/14 03:22:33;;;;;;;14.35;3.67;;;;;;;;;;5048102;28;20562;-60
2022/06/14 03:25:39;;;;;;;7.95;3.50;;;9.80;99.90;;;;;;5032684;28;20041;-61
2022/06/14 03:28:20;;;;;;;5.38;3.05;;;;;;;;;;4971943;28;20058;-60
2022/06/14 03:30:49;;;;;;;9.60;4.40;;;;;;;;;;4970642;28;20043;-61
2022/06/14 03:33:15;;;;;;;12.27;3.45;;;;;;;;;;4973985;28;20051;-60
2022/06/14 03:35:47;;;;;;;11.65;3.53;;;;;;;;;;4971394;28;20134;-60
2022/06/14 03:38:16;;;;;;;6.85;3.30;;;;;;;;;;4971307;28;20059;-60
2022/06/14 03:40:43;;;;;;;9.65;3.80;;;;;;;;;;4971550;28;20074;-61
2022/06/14 03:43:09;;;;;;;8.55;4.28;;;;;;;;;;4971056;28;20492;-60
2022/06/14 03:45:58;;;;;;;12.43;4.03;;;;;;;;;;4971351;28;20054;-61
2022/06/14 03:48:24;;;;;;;9.77;4.10;;;;;;;;;;4949467;28;20055;-60
2022/06/14 03:50:59;;;;;;;12.45;3.65;;;;;;;;;;4971121;28;20054;-60
2022/06/14 03:53:33;;;;;;;9.48;3.90;;;;;;;;;;4980201;28;20042;-60
2022/06/14 03:56:07;;;;;;;9.73;3.92;;;;;;;;;;4991081;28;20050;-61
2022/06/14 03:58:47;;;;;;;11.98;3.67;;;;;;;;;;4991158;28;20117;-60
2022/06/14 04:01:16;;;;;;;11.60;4.00;;;;;;;;;;4976796;28;20133;-60
2022/06/14 04:03:55;;;;;;;8.90;3.15;;;;;;;;;;4974389;28;20110;-60
2022/06/14 04:06:27;;;;;;;9.05;3.45;;;;;;;;;;5032297;28;20045;-60
2022/06/14 04:08:53;;;;;;;9.75;3.92;;;;;;;;;;5031943;28;20049;-59
2022/06/14 04:11:31;;;;;;;8.75;3.60;;;;;;;;;;5047739;28;20045;-59
2022/06/14 04:14:00;;;;;;;12.98;4.53;;;;;;;;;;5030397;28;20076;-59
2022/06/14 04:16:26;;;;;;;12.93;4.05;;;;;;;;;;5032427;28;20059;-59
2022/06/14 04:18:59;;;;;;;8.43;3.83;;;;;;;;;;5032223;28;20041;-59
2022/06/14 04:21:33;;;;;;;7.38;3.60;;;;;;;;;;5032187;28;20090;-59
2022/06/14 04:24:08;;;;;;;11.48;3.60;;;;;;;;;;5031961;28;20100;-59
2022/06/14 04:26:37;;;;;;;10.90;3.83;;;;;;;;;;5031015;28;20050;-60
2022/06/14 04:29:29;;;;;;;9.70;3.88;;;;;;;;;;5031847;28;20133;-59
2022/06/14 04:32:03;;;;;;;13.10;3.95;;;;;;;;;;4989489;28;20094;-59
2022/06/14 04:34:33;;;;;;;11.05;3.72;;;;;;;;;;5030292;28;20045;-59
2022/06/14 04:37:06;;;;;;;11.13;3.90;;;;;;;;;;5032349;28;20042;-59
2022/06/14 04:39:38;;;;;;;11.23;3.70;;;;;;;;;;5031983;28;20057;-59
2022/06/14 04:42:08;;;;;;;9.43;5.13;;;;;;;;;;5030700;28;20092;-59
2022/06/14 04:44:41;;;;;;;10.82;4.18;;;;;;;;;;5032176;28;20095;-59
2022/06/14 04:47:13;;;;;;;8.60;4.13;;;;;;;;;;5032286;28;20050;-59
2022/06/14 04:49:48;;;;;;;14.57;4.07;;;;;;;;;;5031615;28;20404;-59
2022/06/14 04:52:18;;;;;;;7.30;3.83;;;;;;;;;;5031778;28;20050;-60
2022/06/14 04:54:44;;;;;;;11.10;4.20;;;;;;;;;;5013595;28;20050;-59
2022/06/14 04:57:13;;;;;;;12.82;3.90;;;;;;;;;;5031087;28;20057;-59
2022/06/14 04:59:45;;;;;;;10.70;3.65;;;;;;;;;;5032157;28;20441;-59
2022/06/14 05:02:24;;;;;;;14.82;4.32;;;;;;;;;;5036067;28;20057;-60
2022/06/14 05:04:55;;;;;;;10.55;4.38;;;;;;;;;;5015942;28;20131;-60
2022/06/14 05:07:25;;;;;;;10.30;3.80;;;;;;;;;;5028537;28;20041;-60
2022/06/14 05:09:59;;;;;;;9.15;3.30;;;;;;;;;;5035170;28;20052;-60
2022/06/14 05:12:27;;;;;;;9.38;3.92;;;;;;;;;;5034322;28;20490;-60
2022/06/14 05:15:03;;;;;;;10.20;3.55;;;;;;;;;;5034912;28;20053;-60
2022/06/14 05:17:55;;;;;;;9.07;3.58;;;;;;;;;;5035055;28;20049;-59
2022/06/14 05:20:35;;;;;;;12.27;5.72;;;;;;;;;;5020792;28;20448;-60
2022/06/14 05:23:01;;;;;;;14.35;3.75;;;;;;;;;;5027668;28;20057;-61
2022/06/14 05:25:32;;;;;;;12.90;3.85;;;;;;;;;;5031884;28;20053;-60
2022/06/14 05:28:05;;;;;;;13.82;3.95;;;;;;;;;;5033601;28;20045;-59
2022/06/14 05:30:49;;;;;;;12.90;3.83;;;;;;;;;;5033490;28;20056;-60
2022/06/14 05:33:21;;;;;;;7.80;3.67;;;;;;;;;;5034196;28;20477;-60
2022/06/14 05:35:53;;;;;;;15.30;3.90;;;;;;;;;;5016909;28;20489;-60
2022/06/14 05:38:52;;;;;;;14.25;3.85;;;14.10;99.90;;;;;;5033198;28;20045;-60
2022/06/14 05:41:22;;;;;;;12.05;3.60;;;;;;;;;;5002759;28;20123;-60
2022/06/14 05:43:49;;;;;;;11.15;3.28;;;;;;;;;;5034729;28;20033;-61
2022/06/14 05:46:30;;;;;;;7.40;2.90;;;;;;;;;;5034500;28;20056;-60
2022/06/14 05:49:07;;;;;;;7.63;3.33;;;;;;;;;;5034484;28;20053;-60
2022/06/14 05:51:46;;;;;;;9.13;3.00;;;;;;;;;;5033984;28;20049;-62
2022/06/14 05:54:23;;;;;;;8.23;3.20;;;;;;;;;;5024087;28;20058;-62
2022/06/14 05:56:53;;;;;;;8.10;3.13;;;;;;;;;;5011806;28;20124;-62
2022/06/14 05:59:32;;;;;;;10.40;2.75;;;;;;;;;;5015223;28;20046;-62
2022/06/14 06:02:18;;;;;;;12.10;3.65;;;;;;;;;;5009648;28;20052;-62
2022/06/14 06:04:46;;;;;;;8.60;3.03;;;;;;;;;;4984731;28;20199;-61
2022/06/14 06:07:12;;;;;;;7.28;2.80;;;;;;;;;;5012028;28;20437;-62
2022/06/14 06:09:47;;;;;;;9.50;3.10;;;;;;;;;;5007922;28;20429;-62
2022/06/14 06:12:21;;;;;;;7.53;2.55;;;;;;;;;;5012848;28;20053;-61
2022/06/14 06:14:53;;;;;;;9.70;2.92;;;;;;;;;;5006525;28;20049;-61
2022/06/14 06:17:25;;;;;;;9.07;2.42;;;;;;;;;;5008159;28;20098;-62
2022/06/14 06:20:20;;;;;;;5.65;2.10;;;16.10;99.90;;;;;;5006199;28;20201;-62
2022/06/14 06:22:49;;;;;;;5.13;1.60;;;;;;;;;;5011374;28;20048;-61
2022/06/14 06:25:18;;;;;;;9.50;2.00;;;;;;;;;;5007018;28;20033;-64
2022/06/14 06:27:52;;;;;;;7.97;1.85;;;;;;;;;;5010656;28;20144;-62
2022/06/14 06:30:23;;;;;;;9.77;2.80;;;;;;;;;;5007025;28;20145;-62
2022/06/14 06:32:50;;;;;;;7.55;2.10;;;;;;;;;;4995720;28;20050;-63
2022/06/14 06:35:17;;;;;;;9.55;2.45;;;;;;;;;;4997984;28;20096;-62
2022/06/14 06:38:15;;;;;;;9.30;2.50;;;;;;;;;;4995879;28;20128;-63
2022/06/14 06:41:49;;;;;;;9.25;2.28;;;;;;;;;;4953778;28;20634;-62
2022/06/14 06:43:32;;;;;;;12.98;2.90;;;;;;;;;;4951946;28;20055;-62
2022/06/14 06:46:00;;;;;;;5.60;1.70;;;17.50;99.90;;;;;;4951610;28;20526;-62
2022/06/14 06:48:36;;;;;;;7.13;1.80;;;17.50;99.90;;;;;;4953530;29;20094;-62
2022/06/14 06:51:05;;;;;;;8.40;2.33;;;;;;;;;;4961511;28;20051;-62
2022/06/14 06:53:41;;;;;;;6.95;1.85;;;17.70;99.90;;;;;;4960273;28;20070;-61
2022/06/14 06:56:07;;;;;;;11.43;2.58;;;;;;;;;;4969555;28;20106;-61
2022/06/14 06:58:39;;;;;;;5.70;1.60;;;;;;;;;;4967069;28;20039;-61
2022/06/14 07:01:12;;;;;;;12.70;3.03;;;;;;;;;;4971016;28;20049;-61
2022/06/14 07:03:42;;;;;;;6.40;1.83;;;;;;;;;;4965228;28;20116;-61
2022/06/14 07:06:14;;;;;;;9.10;2.38;;;;;;;;;;4964785;28;20495;-61
2022/06/14 07:08:53;;;;;;;8.70;1.80;;;17.60;99.90;;;;;;4969996;28;20047;-61
2022/06/14 07:11:23;;;;;;;8.43;2.20;;;18.00;99.90;;;;;;4972375;28;20058;-60
2022/06/14 07:13:57;;;;;;;7.97;1.73;;;;;;;;;;4971729;28;20050;-60
2022/06/14 07:16:37;;;;;;;10.30;2.22;;;18.40;99.90;;;;;;4979610;28;20065;-61
2022/06/14 07:19:12;;;;;;;;;;;18.40;99.90;;;;;;5029328;28;20041;-60
2022/06/14 07:21:42;;;;;;;6.43;1.40;;;;;;;;;;5012869;28;19928;-61
2022/06/14 07:24:15;;;;;;;6.45;1.38;;;;;;;;;;5009960;28;20050;-61
2022/06/14 07:26:45;;;;;;;5.97;1.30;;;;;;;;;;5013205;28;20053;-61
2022/06/14 07:29:16;;;;;;;6.20;1.38;;;;;;;;;;5012296;28;20449;-61
2022/06/14 07:31:51;;;;;;;6.15;1.48;;;18.30;99.90;;;;;;5011701;28;20050;-61
2022/06/14 07:34:17;;;;;;;5.03;1.30;;;;;;;;;;5011575;28;20054;-61
2022/06/14 07:36:55;;;;;;;5.32;1.40;;;18.40;99.90;;;;;;4994393;28;20049;-61
2022/06/14 07:39:33;;;;;;;5.18;1.20;;;18.60;99.90;;;;;;5013474;28;20042;-61
2022/06/14 07:42:32;;;;;;;4.70;1.33;;;18.90;99.90;;;;;;5011188;28;20156;-61
2022/06/14 07:45:20;;;;;;;5.53;1.10;;;18.90;99.90;;;;;;5013022;28;20469;-61
2022/06/14 07:47:58;;;;;;;6.13;1.30;;;19.10;99.90;;;;;;5007169;28;20072;-61
2022/06/14 07:50:42;;;;;;;4.70;1.25;;;19.10;99.90;;;;;;5006091;28;20120;-61
2022/06/14 07:53:18;;;;;;;5.93;1.35;;;19.30;99.90;;;;;;5006102;28;20435;-62
2022/06/14 07:56:10;;;;;;;4.70;1.35;;;19.40;99.90;;;;;;5026071;28;20064;-61
2022/06/14 07:58:58;;;;;;;5.50;1.48;;;19.70;99.90;;;;;;5028204;28;20232;-61
2022/06/14 08:01:33;;;;;;;5.93;1.60;;;19.90;99.90;;;;;;5029319;28;20475;-61
2022/06/14 08:04:05;;;;;;;5.10;1.48;;;19.80;99.90;;;;;;5039700;28;20072;-61
2022/06/14 08:06:51;;;;;;;6.00;1.30;;;20.00;99.90;;;;;;5011403;28;20048;-61
2022/06/14 08:09:40;;;;;;;9.18;2.40;;;20.30;99.90;;;;;;5031955;28;20091;-61
2022/06/14 08:12:14;;;;;;;5.20;1.85;;;20.10;99.90;;;;;;5005197;28;20510;-61
2022/06/14 08:15:03;;;;;;;4.88;1.83;;;20.10;99.90;;;;;;5014292;28;20038;-61
2022/06/14 08:17:38;;;;;;;3.15;1.10;;;19.90;99.90;;;;;;5029840;28;20374;-61
2022/06/14 08:20:14;;;;;;;4.88;1.23;;;19.80;99.90;;;;;;5014545;28;20064;-61
2022/06/14 08:22:43;;;;;;;5.70;1.10;;;20.10;99.90;;;;;;5031646;28;20045;-62
2022/06/14 08:25:23;;;;;;;3.77;1.10;;;20.00;99.90;;;;;;5031390;28;20124;-61
2022/06/14 08:28:01;;;;;;;6.63;1.38;;;20.20;99.90;;;;;;5032034;28;20280;-61
2022/06/14 08:30:32;;;;;;;4.75;1.27;;;19.90;99.90;;;;;;5012958;28;20045;-62
2022/06/14 08:33:06;;;;;;;7.15;1.08;;;19.90;99.90;;;;;;5031582;28;20125;-62
2022/06/14 08:35:53;;;;;;;3.90;1.15;;;20.10;99.90;;;;;;5018013;28;20159;-61
2022/06/14 08:38:40;;;;;;;5.35;1.20;;;20.20;99.90;;;;;;5017943;28;20053;-61
2022/06/14 08:41:17;;;;;;;6.82;1.80;;;20.30;99.90;;;;;;5033528;28;20040;-61
2022/06/14 08:43:44;;;;;;;5.53;1.17;;;20.50;99.90;;;;;;5032771;28;20417;-61
2022/06/14 08:46:38;;;;;;;2.90;1.10;;;20.40;99.90;;;;;;5028522;28;20049;-62
2022/06/14 08:49:41;;;;;;;4.93;1.58;;;20.80;99.90;;;;;;5012968;28;20107;-62
2022/06/14 08:52:32;;;;;;;6.82;1.42;;;21.50;99.90;;;;;;4993123;28;20061;-61
2022/06/14 08:55:27;;;;;;;5.35;1.10;;;21.20;99.90;;;;;;5017178;28;20058;-62
2022/06/14 08:58:27;;;;;;;4.18;1.10;;;21.00;99.90;;;;;;5008928;28;20092;-62
2022/06/14 09:01:37;;;;;;;2.35;1.00;;;21.00;99.90;;;;;;5011698;28;20077;-61
2022/06/14 09:04:47;;;;;;;8.57;1.50;;;20.70;99.90;;;;;;5014858;28;20053;-61
2022/06/14 09:07:24;;;;;;;4.70;1.20;;;20.20;99.90;;;;;;5008991;28;20050;-63
2022/06/14 09:10:01;;;;;;;8.20;1.65;;;;;;;;;;5005929;28;20408;-62
2022/06/14 09:12:30;;;;;;;4.40;1.13;;;;;;;;;;5015765;28;20124;-62
2022/06/14 09:15:05;;;;;;;2.78;0.93;;;;;;;;;;5015368;28;20140;-60
2022/06/14 09:18:06;;;;;;;3.88;1.85;;;19.20;99.90;;;;;;5014392;28;20612;-60
2022/06/14 09:21:02;;;;;;;4.20;1.40;;;19.80;99.90;;;;;;5022273;28;20050;-62
2022/06/14 09:23:53;;;;;;;3.92;1.15;;;19.80;99.90;;;;;;5014906;28;20053;-62
2022/06/14 09:26:33;;;;;;;4.25;1.35;;;20.80;99.90;;;;;;5014930;28;20046;-63
2022/06/14 09:28:58;;;;;;;9.25;1.23;;;20.80;99.90;;;;;;5004144;28;20049;-62
2022/06/14 09:31:43;;;;;;;5.70;1.27;;;21.60;99.90;;;;;;5013744;28;20135;-62
2022/06/14 09:34:21;;;;;;;6.63;1.48;;;21.60;99.90;;;;;;5013595;28;20472;-62
2022/06/14 09:37:13;;;;;;;3.97;1.10;;;21.00;99.90;;;;;;5015003;28;20492;-63
2022/06/14 09:40:00;;;;;;;7.00;1.25;;;21.10;99.90;;;;;;5013915;28;20038;-62
2022/06/14 09:42:41;;;;;;;5.80;1.23;;;20.90;99.90;;;;;;5004835;28;20060;-62
2022/06/14 09:45:34;;;;;;;3.08;0.82;;;21.10;99.90;;;;;;5013901;28;20049;-62
2022/06/14 09:48:51;;;;;;;4.07;1.25;;;21.00;99.90;;;;;;5012580;28;20065;-62
2022/06/14 09:51:32;;;;;;;3.28;1.00;;;;;;;;;;5015939;28;20050;-62
2022/06/14 09:54:30;;;;;;;4.32;1.30;;;20.30;99.90;;;;;;5020897;28;20576;-62
2022/06/14 09:57:13;;;;;;;8.20;1.50;;;19.90;99.90;;;;;;5023728;28;20056;-62
2022/06/14 10:00:14;;;;;;;5.28;1.70;;;19.70;99.90;;;;;;5033529;28;20043;-62
2022/06/14 10:02:49;;;;;;;5.43;1.25;;;;;;;;;;5034324;28;20098;-62
2022/06/14 10:05:25;;;;;;;5.75;1.40;;;;;;;;;;5033791;28;20092;-62
2022/06/14 10:08:26;;;;;;;4.95;1.30;;;19.70;99.90;;;;;;5034746;28;20077;-62
2022/06/14 10:11:13;;;;;;;3.63;1.27;;;19.50;99.90;;;;;;4991240;28;20054;-63
2022/06/14 10:14:05;;;;;;;3.25;1.30;;;19.60;99.90;;;;;;4986951;28;20054;-63
2022/06/14 10:16:59;;;;;;;4.35;0.95;;;20.00;99.90;;;;;;4986663;28;20050;-63
2022/06/14 10:20:01;;;;;;;6.45;1.35;;;20.10;99.90;;;;;;4991717;28;20101;-67
2022/06/14 10:22:49;;;;;;;4.72;1.20;;;20.10;99.90;;;;;;5008172;28;20049;-62
2022/06/14 10:25:19;;;;;;;3.55;1.40;;;19.90;99.90;;;;;;4988777;28;20062;-62
2022/06/14 10:30:38;;;;;;;3.90;1.10;;;;;;;;;;4991633;28;20057;-62
2022/06/14 10:33:04;;;;;;;5.75;1.33;;;;;;;;;;4968643;28;20057;-62
2022/06/14 10:35:30;;;;;;;6.15;1.30;;;;;;;;;;4984619;28;20043;-62
2022/06/14 10:38:19;;;;;;;4.28;1.30;;;19.60;99.90;;;;;;4975997;28;20415;-62
2022/06/14 10:41:03;;;;;;;6.22;1.17;;;20.20;99.90;;;;;;4989218;28;20046;-62
2022/06/14 10:43:52;;;;;;;5.75;1.90;;;20.90;99.90;;;;;;4982863;28;20352;-62
2022/06/14 10:46:31;;;;;;;3.55;1.25;;;21.40;99.90;;;;;;5023585;28;20096;-62
2022/06/14 10:49:16;;;;;;;4.18;1.05;;;21.80;99.90;;;;;;5024839;28;20493;-62
2022/06/14 10:51:55;;;;;;;3.13;0.95;;;21.90;99.90;;;;;;5035456;28;20115;-62
2022/06/14 10:54:53;;;;;;;3.67;1.10;;;21.50;99.90;;;;;;5033146;28;20053;-62
2022/06/14 10:57:24;;;;;;;5.40;1.10;;;21.30;99.90;;;;;;4961552;28;20047;-62
2022/06/14 11:00:08;;;;;;;4.05;1.17;;;20.90;99.90;;;;;;5032276;28;20049;-63
2022/06/14 11:03:10;;;;;;;3.30;1.20;;;20.90;99.90;;;;;;5033303;28;20053;-62
2022/06/14 11:05:37;;;;;;;2.00;0.77;;;;;;;;;;5033775;28;20143;-62
2022/06/14 11:08:30;;;;;;;2.60;0.95;;;20.20;99.90;;;;;;5035296;28;20506;-62
2022/06/14 11:11:08;;;;;;;3.55;1.00;;;;;;;;;;5025612;28;20393;-62
2022/06/14 11:13:53;;;;;;;3.88;1.05;;;20.10;99.90;;;;;;5006622;28;20401;-62
2022/06/14 11:16:27;;;;;;;5.07;1.80;;;;;;;;;;5023599;28;20076;-62
2022/06/14 11:19:21;;;;;;;3.08;1.13;;;;;;;;;;5032760;28;20120;-62
2022/06/14 11:21:53;;;;;;;4.28;0.80;;;;;;;;;;5024577;28;20131;-63
2022/06/14 11:24:26;;;;;;;3.40;1.05;;;;;;;;;;5025353;28;20481;-62
2022/06/14 11:26:57;;;;;;;3.90;1.00;;;;;;;;;;5023657;28;20057;-62
2022/06/14 11:29:23;;;;;;;;;;;;;;;;;;5024314;28;20056;-62
2022/06/14 11:32:15;;;;;;;2.60;1.30;;;19.90;99.90;;;;;;5023965;28;19924;-63
2022/06/14 11:34:53;;;;;;;3.65;1.20;;;;;;;;;;5024048;28;20050;-62
2022/06/14 11:37:31;;;;;;;3.95;1.42;;;20.10;99.90;;;;;;5013381;28;20501;-62
2022/06/14 11:39:57;;;;;;;4.30;1.52;;;;;;;;;;5026663;28;20049;-62
2022/06/14 11:42:28;;;;;;;5.25;1.80;;;20.20;99.90;;;;;;5023666;28;20053;-62
2022/06/14 11:45:03;;;;;;;2.47;0.90;;;;;;;;;;5030159;28;20049;-62
2022/06/14 11:47:46;;;;;;;3.38;1.65;;;20.80;99.90;;;;;;5024193;28;20076;-62
2022/06/14 11:50:17;;;;;;;3.72;1.00;;;;;;;;;;5031751;28;20053;-62
2022/06/14 11:52:52;;;;;;;4.47;0.98;;;21.50;99.90;;;;;;5030828;28;20045;-62
2022/06/14 11:55:18;;;;;;;3.33;1.10;;;;;;;;;;5031991;28;20071;-62
2022/06/14 11:57:54;;;;;;;5.75;1.17;;;21.00;99.90;;;;;;5014442;28;20151;-62
2022/06/14 12:00:31;;;;;;;5.95;1.63;;;20.80;99.90;;;;;;5032147;28;20059;-62
2022/06/14 12:03:18;;;;;;;6.20;1.17;;;20.80;99.90;;;;;;5010159;28;20382;-62
2022/06/14 12:05:51;;;;;;;3.38;0.90;;;;;;;;;;5007247;28;20052;-62
2022/06/14 12:08:17;;;;;;;4.35;0.90;;;;;;;;;;5007298;28;20053;-62
2022/06/14 12:10:49;;;;;;;3.03;1.00;;;20.60;99.90;;;;;;5029898;28;20038;-62
2022/06/14 12:13:34;;;;;;;4.72;1.50;;;20.60;99.90;;;;;;5031394;28;20053;-62
2022/06/14 12:16:13;;;;;;;4.35;1.20;;;20.10;99.90;;;;;;5014812;28;20409;-63
2022/06/14 12:18:43;;;;;;;2.38;1.10;;;19.90;99.90;;;;;;5032029;28;20056;-62
2022/06/14 12:21:21;;;;;;;;;;;20.10;99.90;;;;;;5015675;28;20059;-62
2022/06/14 12:23:54;;;;;;;4.97;1.10;;;;;;;;;;5019671;28;19927;-62
2022/06/14 12:26:40;;;;;;;5.18;0.98;;;20.10;99.90;;;;;;5032490;28;20053;-62
2022/06/14 12:29:18;;;;;;;3.20;1.25;;;;;;;;;;5031832;28;20375;-62
2022/06/14 12:31:53;;;;;;;2.53;1.00;;;;;;;;;;5031595;28;20060;-62
2022/06/14 12:34:31;;;;;;;4.47;1.50;;;20.20;99.90;;;;;;5029771;28;20076;-62
2022/06/14 12:37:00;;;;;;;4.68;1.15;;;;;;;;;;5031394;28;20042;-62
2022/06/14 12:39:38;;;;;;;5.05;1.35;;;;;;;;;;5026154;28;20417;-63
2022/06/14 12:42:20;;;;;;;2.78;1.13;;;20.90;99.90;;;;;;5029671;28;20076;-62
2022/06/14 12:44:53;;;;;;;7.38;1.48;;;;;;;;;;5017025;28;20045;-61
2022/06/14 12:47:32;;;;;;;5.95;1.13;;;21.40;99.90;;;;;;5031113;28;20041;-62
2022/06/14 12:50:11;;;;;;;3.65;1.38;;;21.00;99.90;;;;;;5035869;28;20164;-62
2022/06/14 12:52:43;;;;;;;3.97;1.27;;;21.00;99.90;;;;;;5009355;28;20512;-62
2022/06/14 12:55:29;;;;;;;4.88;1.27;;;;;;;;;;5015311;28;20057;-61
2022/06/14 12:58:06;;;;;;;9.68;2.28;;;;;;;;;;5023690;28;20061;-62
2022/06/14 13:00:32;;;;;;;2.95;1.20;;;;;;;;;;5004512;28;20049;-62
2022/06/14 13:03:13;;;;;;;3.92;1.40;;;21.00;99.90;;;;;;5008979;28;20050;-61
2022/06/14 13:05:46;;;;;;;4.38;1.10;;;21.30;99.90;;;;;;5010721;28;20069;-62
2022/06/14 13:08:47;;;;;;;5.30;1.33;;;21.40;99.90;;;;;;5011182;28;20050;-61
2022/06/14 13:11:13;;;;;;;;;;;;;;;;;;5010885;28;20080;-62
2022/06/14 13:14:04;;;;;;;5.05;1.80;;;21.10;99.90;;;;;;5010479;28;19929;-61
2022/06/14 13:16:39;;;;;;;3.30;1.20;;;;;;;;;;5007415;28;20080;-61
2022/06/14 13:19:13;;;;;;;5.20;1.55;;;;;;;;;;5011913;28;20046;-61
2022/06/14 13:21:42;;;;;;;7.40;1.30;;;;;;;;;;5013071;28;20103;-62
2022/06/14 13:24:08;;;;;;;4.13;1.38;;;;;;;;;;5014601;28;20056;-62
2022/06/14 13:26:49;;;;;;;3.08;1.38;;;;;;;;;;5008509;28;20038;-62
2022/06/14 13:29:22;;;;;;;3.67;1.40;;;;;;;;;;5019451;28;20041;-62
2022/06/14 13:31:52;;;;;;;5.72;1.55;;;;;;;;;;5015762;28;20073;-62
2022/06/14 13:34:28;;;;;;;2.97;1.45;;;;;;;;;;5013874;28;20046;-62
2022/06/14 13:37:01;;;;;;;5.57;1.20;;;;;;;;;;5015032;28;20046;-62
2022/06/14 13:39:38;;;;;;;6.40;1.67;;;;;;;;;;5011966;28;20046;-62
2022/06/14 13:42:08;;;;;;;5.90;1.58;;;;;;;;;;5014368;28;20045;-62
2022/06/14 13:44:35;;;;;;;3.85;1.08;;;;;;;;;;5013979;28;20045;-62
2022/06/14 13:47:02;;;;;;;3.88;1.30;;;;;;;;;;5012054;28;20049;-62
2022/06/14 13:49:34;;;;;;;6.43;2.15;;;;;;;;;;5014566;28;20141;-62
2022/06/14 13:52:45;;;;;;;3.63;1.13;;;20.60;99.90;;;;;;5009495;28;20069;-62
2022/06/14 13:55:14;;;;;;;4.45;1.20;;;;;;;;;;5031300;28;20053;-62
2022/06/14 13:58:04;;;;;;;12.23;1.50;;;;;;;;;;5034011;28;20064;-62
2022/06/14 14:00:41;;;;;;;4.47;1.23;;;;;;;;;;5006862;28;20091;-60
2022/06/14 14:03:31;;;;;;;5.50;1.13;;;20.70;99.90;;;;;;5015752;28;20060;-63
2022/06/14 14:05:58;;;;;;;;;;;;;;;;;;5016013;28;20045;-62
2022/06/14 14:08:24;;;;;;;2.95;1.30;;;;;;;;;;5034619;28;19925;-64
2022/06/14 14:10:50;;;;;;;3.35;1.27;;;;;;;;;;5033937;28;20128;-67
2022/06/14 14:13:24;;;;;;;4.32;1.10;;;;;;;;;;5016896;28;20138;-62
2022/06/14 14:16:02;;;;;;;11.63;1.98;;;;;;;;;;5034680;28;20064;-62
2022/06/14 14:18:37;;;;;;;6.18;1.27;;;;;;;;;;5030759;28;20601;-62
2022/06/14 14:21:09;;;;;;;4.97;1.17;;;;;;;;;;5015771;28;20049;-62
2022/06/14 14:23:46;;;;;;;3.85;1.15;;;20.90;99.90;;;;;;5033332;28;20052;-62
2022/06/14 14:26:12;;;;;;;6.13;1.20;;;;;;;;;;5045702;28;20041;-62
2022/06/14 14:28:59;;;;;;;3.42;0.90;;;;;;;;;;5040137;28;20042;-63
2022/06/14 14:31:34;;;;;;;6.13;1.27;;;;;;;;;;5028916;28;20042;-62
2022/06/14 14:34:30;;;;;;;2.53;1.00;;;20.90;99.90;;;;;;5033135;28;20068;-62
2022/06/14 14:37:17;;;;;;;3.72;1.27;;;21.20;99.90;;;;;;5029982;28;20095;-62
2022/06/14 14:39:59;;;;;;;3.75;1.23;;;;;;;;;;5032982;28;20143;-62
2022/06/14 14:42:30;;;;;;;5.72;1.17;;;21.40;99.90;;;;;;5017032;28;20049;-62
2022/06/14 14:45:03;;;;;;;5.35;1.30;;;;;;;;;;5033458;28;20048;-62
2022/06/14 14:47:37;;;;;;;5.63;1.20;;;;;;;;;;5033641;28;20045;-61
2022/06/14 14:50:34;;;;;;;6.30;1.23;;;21.30;99.90;;;;;;5034324;28;20116;-62
2022/06/14 14:53:22;;;;;;;3.08;1.40;;;21.60;99.90;;;;;;5034334;28;20045;-62
2022/06/14 14:55:55;;;;;;;3.53;1.10;;;;;;;;;;5023867;28;20049;-63
2022/06/14 14:58:25;;;;;;;3.80;1.23;;;;;;;;;;5031453;28;20056;-62